KSFZ/SFZ METAR and TAF weather

Enter ICAO airport designator
Station Type Date Time Source
KSFZ METAR 2019/10/22 15:56 UTC NOAA

KSFZ 221556Z AUTO 08004KT 10SM OVC015 13/10 A3010 RMK AO2 SLPNO T01330100


Station Type Date Time Source
KSFZ Decoded METAR 2019/10/22 15:56 UTC NOAA

Pawtucket, North Central State Airport, RI, United States (KSFZ) 41-55N 071-30W
Oct 22, 2019 - 11:56 AM EDT / 2019.10.22 1556 UTC
Wind: from the E (080 degrees) at 5 MPH (4 KT):0
Visibility: 10 mile(s):0
Sky conditions: overcast
Temperature: 55.9 F (13.3 C)
Dew Point: 50.0 F (10.0 C)
Relative Humidity: 80%
Pressure (altimeter): 30.1 in. Hg (1019 hPa)
ob: KSFZ 221556Z AUTO 08004KT 10SM OVC015 13/10 A3010 RMK AO2 SLPNO T01330100
cycle: 16

Station Type Date Time Source
KSFZ TAF UTC NOAA

Error!

Example: see airport list